Time;durP1;ratioP1;P1;durP2;ratioP2;P2;SDS_P1;SDS_P2;PMS_P1;PMS_P2;Temp;Humidity;BMP_temperature;BMP_pressure;BME280_temperature;BME280_humidity;BME280_pressure;Samples;Min_cycle;Max_cycle;Signal;HPM_P1;HPM_P2
2023/06/13 00:00:13;;;;;;;;;;;19.90;85.50;;;;;;5074512;28;20016;-63
2023/06/13 00:02:39;;;;;;;;;;;19.90;85.70;;;;;;5040314;28;20324;-64
2023/06/13 00:05:10;;;;;;;;;;;19.90;85.50;;;;;;5064439;28;19928;-64
2023/06/13 00:07:37;;;;;;;;;;;19.80;85.90;;;;;;5072058;28;20365;-64
2023/06/13 00:10:06;;;;;;;;;;;19.70;86.30;;;;;;5074056;28;19928;-63
2023/06/13 00:12:34;;;;;;;;;;;19.70;86.60;;;;;;5071158;28;19928;-63
2023/06/13 00:15:01;;;;;;;;;;;19.70;86.00;;;;;;5070666;28;19924;-65
2023/06/13 00:17:29;;;;;;;;;;;19.60;86.00;;;;;;5054578;28;19929;-70
2023/06/13 00:19:55;;;;;;;;;;;19.60;86.10;;;;;;5060285;28;20012;-65
2023/06/13 00:22:21;;;;;;;;;;;19.50;86.40;;;;;;5072319;28;19968;-65
2023/06/13 00:24:47;;;;;;;;;;;19.40;86.10;;;;;;5061670;28;19924;-65
2023/06/13 00:27:12;;;;;;;;;;;19.40;86.10;;;;;;5052826;28;20301;-65
2023/06/13 00:29:38;;;;;;;;;;;19.40;86.50;;;;;;5053367;28;19924;-65
2023/06/13 00:32:04;;;;;;;;;;;19.40;86.20;;;;;;5051714;28;20036;-67
2023/06/13 00:34:30;;;;;;;;;;;19.30;86.40;;;;;;5048329;28;19936;-71
2023/06/13 00:36:55;;;;;;;;;;;19.30;86.30;;;;;;5034335;28;20019;-66
2023/06/13 00:39:21;;;;;;;;;;;19.30;86.30;;;;;;5052483;28;19947;-65
2023/06/13 00:41:47;;;;;;;;;;;19.20;86.40;;;;;;5050736;28;19924;-65
2023/06/13 00:44:12;;;;;;;;;;;19.20;86.40;;;;;;5044255;28;19928;-64
2023/06/13 00:46:39;;;;;;;;;;;19.10;86.30;;;;;;5040050;28;19928;-66
2023/06/13 00:49:05;;;;;;;;;;;19.10;86.20;;;;;;5019389;28;19925;-65
2023/06/13 00:51:31;;;;;;;;;;;19.10;86.20;;;;;;5047509;28;20374;-70
2023/06/13 00:53:58;;;;;;;;;;;19.00;86.40;;;;;;5049843;28;19928;-64
2023/06/13 00:56:24;;;;;;;;;;;19.00;86.30;;;;;;5052716;28;20003;-64
2023/06/13 00:58:54;;;;;;;;;;;18.90;86.40;;;;;;5052085;28;20016;-66
2023/06/13 01:01:22;;;;;;;;;;;18.90;86.70;;;;;;5052850;28;20382;-65
2023/06/13 01:03:48;;;;;;;;;;;18.90;86.60;;;;;;5051693;28;20394;-65
2023/06/13 01:06:14;;;;;;;;;;;18.80;86.70;;;;;;5043914;28;19983;-64
2023/06/13 01:08:40;;;;;;;;;;;18.80;86.70;;;;;;5031821;28;19929;-64
2023/06/13 01:11:23;;;;;;;;;;;18.70;86.60;;;;;;5045749;28;20350;-65
2023/06/13 01:13:51;;;;;;;;;;;18.70;87.10;;;;;;5039603;28;20378;-65
2023/06/13 01:16:40;;;;;;;;;;;18.70;86.50;;;;;;5046422;28;19925;-64
2023/06/13 01:19:11;;;;;;;;;;;18.60;86.60;;;;;;5040698;28;19929;-64
2023/06/13 01:21:38;;;;;;;;;;;18.60;86.70;;;;;;5052366;28;20061;-70
2023/06/13 01:24:12;;;;;;;;;;;18.60;86.90;;;;;;5051570;28;19972;-65
2023/06/13 01:26:37;;;;;;;;;;;18.60;86.90;;;;;;5057197;28;20003;-69
2023/06/13 01:29:04;;;;;;;;;;;18.50;87.20;;;;;;5044917;28;20401;-65
2023/06/13 01:31:31;;;;;;;;;;;18.50;86.90;;;;;;5066946;28;19951;-65
2023/06/13 01:33:56;;;;;;;;;;;18.50;86.80;;;;;;5072237;28;20173;-65
2023/06/13 01:36:22;;;;;;;;;;;18.40;86.80;;;;;;5063190;28;20016;-65
2023/06/13 01:38:48;;;;;;;;;;;18.40;87.00;;;;;;5058259;28;19939;-65
2023/06/13 01:41:14;;;;;;;;;;;18.40;87.10;;;;;;5054561;28;20011;-65
2023/06/13 01:43:39;;;;;;;;;;;18.30;87.10;;;;;;5072118;28;19925;-71
2023/06/13 01:46:20;;;;;;;;;;;18.30;87.50;;;;;;5066329;28;19949;-66
2023/06/13 01:49:00;;;;;;;;;;;18.30;87.20;;;;;;5062047;28;20015;-65
2023/06/13 01:51:39;;;;;;;;;;;18.20;87.40;;;;;;5072429;28;20413;-65
2023/06/13 01:54:09;;;;;;;;;;;18.20;87.50;;;;;;5071849;28;20378;-65
2023/06/13 01:56:37;;;;;;;;;;;18.10;87.40;;;;;;5071502;28;20026;-65
2023/06/13 01:59:10;;;;;;;;;;;18.10;87.50;;;;;;5058537;28;19928;-63
2023/06/13 02:01:38;;;;;;;;;;;18.10;87.60;;;;;;5068226;28;19979;-63
2023/06/13 02:04:04;;;;;;;;;;;18.20;87.80;;;;;;5037134;28;19982;-63
2023/06/13 02:06:29;;;;;;;;;;;18.00;87.80;;;;;;5054070;28;19925;-64
2023/06/13 02:08:56;;;;;;;;;;;18.00;88.00;;;;;;5066700;28;19925;-63
2023/06/13 02:11:21;;;;;;;;;;;17.90;88.10;;;;;;5054350;28;20451;-63
2023/06/13 02:13:48;;;;;;;;;;;17.90;88.30;;;;;;5053552;28;19932;-63
2023/06/13 02:16:14;;;;;;;;;;;17.80;88.90;;;;;;5071721;28;19975;-64
2023/06/13 02:18:40;;;;;;;;;;;17.80;89.10;;;;;;5070163;28;20022;-63
2023/06/13 02:21:07;;;;;;;;;;;17.70;90.10;;;;;;5069496;28;20405;-63
2023/06/13 02:23:33;;;;;;;;;;;17.60;89.50;;;;;;5053615;28;19925;-63
2023/06/13 02:25:58;;;;;;;;;;;17.60;89.90;;;;;;5057230;28;19982;-64
2023/06/13 02:28:24;;;;;;;;;;;17.50;89.50;;;;;;5049316;28;19925;-64
2023/06/13 02:30:50;;;;;;;;;;;17.50;90.00;;;;;;5038176;28;19925;-65
2023/06/13 02:33:15;;;;;;;;;;;17.50;89.70;;;;;;5042567;28;20366;-65
2023/06/13 02:35:42;;;;;;;;;;;17.40;89.90;;;;;;5049974;28;19968;-64
2023/06/13 02:38:07;;;;;;;;;;;17.40;90.00;;;;;;5066329;28;19998;-64
2023/06/13 02:40:35;;;;;;;;;;;17.30;90.00;;;;;;5047619;28;20382;-64
2023/06/13 02:43:01;;;;;;;;;;;17.30;90.30;;;;;;5041496;28;19929;-64
2023/06/13 02:45:26;;;;;;;;;;;17.30;90.00;;;;;;5050112;28;20373;-64
2023/06/13 02:47:54;;;;;;;;;;;17.30;90.00;;;;;;5046604;28;19929;-65
2023/06/13 02:50:20;;;;;;;;;;;17.20;89.90;;;;;;5047628;28;19925;-65
2023/06/13 02:52:47;;;;;;;;;;;17.20;89.70;;;;;;5049543;28;19947;-68
2023/06/13 02:55:12;;;;;;;;;;;17.20;89.60;;;;;;5049476;28;19928;-64
2023/06/13 02:57:38;;;;;;;;;;;17.20;89.50;;;;;;5050594;28;19924;-64
2023/06/13 03:00:07;;;;;;;;;;;17.20;89.50;;;;;;5048662;28;20374;-66
2023/06/13 03:02:32;;;;;;;;;;;17.10;89.40;;;;;;5039542;28;20030;-64
2023/06/13 03:04:58;;;;;;;;;;;17.10;89.40;;;;;;5050318;28;19936;-65
2023/06/13 03:07:24;;;;;;;;;;;17.10;89.60;;;;;;5049615;28;20353;-64
2023/06/13 03:09:49;;;;;;;;;;;17.10;89.40;;;;;;5049383;28;19928;-70
2023/06/13 03:12:15;;;;;;;;;;;17.10;89.20;;;;;;5045055;28;19929;-64
2023/06/13 03:14:41;;;;;;;;;;;17.10;89.30;;;;;;5040731;28;19932;-64
2023/06/13 03:17:07;;;;;;;;;;;17.10;89.10;;;;;;5050320;28;20010;-64
2023/06/13 03:19:33;;;;;;;;;;;17.10;89.10;;;;;;5050983;28;19925;-64
2023/06/13 03:21:58;;;;;;;;;;;17.10;88.80;;;;;;5048345;28;20015;-65
2023/06/13 03:24:24;;;;;;;;;;;17.10;88.70;;;;;;5020787;28;19925;-63
2023/06/13 03:26:49;;;;;;;;;;;17.00;88.60;;;;;;5048058;28;19943;-65
2023/06/13 03:29:15;;;;;;;;;;;17.10;88.50;;;;;;5068508;28;19928;-63
2023/06/13 03:31:41;;;;;;;;;;;17.00;88.40;;;;;;5066974;28;19928;-64
2023/06/13 03:34:06;;;;;;;;;;;17.00;88.40;;;;;;5035263;28;19928;-63
2023/06/13 03:36:37;;;;;;;;;;;17.00;88.40;;;;;;5047252;28;19935;-63
2023/06/13 03:39:02;;;;;;;;;;;17.00;88.20;;;;;;5038100;28;19925;-63
2023/06/13 03:41:28;;;;;;;;;;;17.00;88.10;;;;;;5069245;28;19928;-63
2023/06/13 03:43:54;;;;;;;;;;;17.00;88.10;;;;;;5064645;28;19929;-68
2023/06/13 03:46:20;;;;;;;;;;;16.90;88.00;;;;;;5064544;28;20063;-64
2023/06/13 03:48:46;;;;;;;;;;;17.00;87.90;;;;;;5070637;28;20394;-64
2023/06/13 03:51:11;;;;;;;;;;;16.90;87.80;;;;;;5070131;28;19928;-64
2023/06/13 03:53:38;;;;;;;;;;;16.90;87.70;;;;;;5068616;28;20301;-64
2023/06/13 03:56:06;;;;;;;;;;;16.90;87.50;;;;;;5068620;28;19924;-64
2023/06/13 03:58:32;;;;;;;;;;;16.90;87.30;;;;;;5050890;28;19929;-65
2023/06/13 04:00:58;;;;;;;;;;;16.90;87.30;;;;;;5052213;28;20038;-64
2023/06/13 04:03:23;;;;;;;;;;;16.90;87.20;;;;;;5069685;28;20003;-64
2023/06/13 04:05:49;;;;;;;;;;;16.90;87.20;;;;;;5028807;28;19928;-64
2023/06/13 04:08:15;;;;;;;;;;;16.90;87.20;;;;;;5052112;28;19986;-63
2023/06/13 04:10:40;;;;;;;;;;;16.90;87.10;;;;;;5070257;28;20341;-65
2023/06/13 04:13:06;;;;;;;;;;;16.90;87.00;;;;;;5069924;28;19930;-64
2023/06/13 04:15:32;;;;;;;;;;;16.90;87.10;;;;;;5045515;28;20305;-64
2023/06/13 04:17:57;;;;;;;;;;;16.90;87.40;;;;;;5070196;28;19951;-69
2023/06/13 04:20:24;;;;;;;;;;;16.90;87.60;;;;;;5069789;28;19929;-64
2023/06/13 04:22:49;;;;;;;;;;;17.00;87.60;;;;;;5052567;28;19970;-65
2023/06/13 04:25:15;;;;;;;;;;;17.00;87.50;;;;;;5060559;28;20282;-64
2023/06/13 04:27:43;;;;;;;;;;;17.00;87.60;;;;;;5045796;28;19974;-64
2023/06/13 04:30:09;;;;;;;;;;;17.00;87.90;;;;;;5045708;28;19924;-64
2023/06/13 04:32:37;;;;;;;;;;;17.10;87.80;;;;;;5051208;28;19928;-64
2023/06/13 04:35:03;;;;;;;;;;;17.10;87.90;;;;;;5068702;28;19929;-64
2023/06/13 04:37:30;;;;;;;;;;;17.20;88.00;;;;;;5050549;28;19936;-63
2023/06/13 04:39:56;;;;;;;;;;;17.20;88.30;;;;;;5046499;28;19956;-63
2023/06/13 04:42:29;;;;;;;;;;;17.30;88.30;;;;;;5046620;28;19976;-63
2023/06/13 04:45:01;;;;;;;;;;;17.40;88.50;;;;;;5052681;28;19968;-64
2023/06/13 04:47:30;;;;;;;;;;;17.50;88.40;;;;;;5039920;28;19925;-63
2023/06/13 04:49:58;;;;;;;;;;;17.70;88.50;;;;;;5053273;28;19970;-64
2023/06/13 04:52:27;;;;;;;;;;;17.90;88.70;;;;;;5050741;28;19929;-62
2023/06/13 04:54:54;;;;;;;;;;;18.40;89.10;;;;;;5053232;28;19972;-65
2023/06/13 04:57:20;;;;;;;;;;;19.30;88.70;;;;;;5049801;28;19929;-63
2023/06/13 04:59:46;;;;;;;;;;;20.00;87.30;;;;;;5043546;28;19932;-63
2023/06/13 05:02:12;;;;;;;;;;;20.80;84.60;;;;;;5040898;28;19929;-63
2023/06/13 05:04:38;;;;;;;;;;;21.50;85.80;;;;;;5028232;28;19936;-64
2023/06/13 05:07:06;;;;;;;;;;;22.20;85.10;;;;;;5039557;28;19980;-68
2023/06/13 05:09:32;;;;;;;;;;;22.70;80.90;;;;;;5051599;28;19959;-64
2023/06/13 05:11:57;;;;;;;;;;;23.10;83.20;;;;;;5051470;28;19929;-63
2023/06/13 05:14:23;;;;;;;;;;;23.50;83.00;;;;;;5048674;28;19925;-63
2023/06/13 05:16:49;;;;;;;;;;;23.90;81.50;;;;;;5035833;28;20008;-63
2023/06/13 05:19:15;;;;;;;;;;;24.40;80.70;;;;;;5041052;28;19979;-64
2023/06/13 05:21:40;;;;;;;;;;;24.80;80.20;;;;;;5051913;28;19929;-64
2023/06/13 05:24:09;;;;;;;;;;;25.20;79.90;;;;;;5052384;28;19932;-69
2023/06/13 05:26:35;;;;;;;;;;;25.60;79.40;;;;;;5070611;28;19951;-64
2023/06/13 05:29:03;;;;;;;;;;;26.00;77.20;;;;;;5053063;28;19933;-64
2023/06/13 05:31:29;;;;;;;;;;;26.40;77.90;;;;;;5071025;28;19932;-65
2023/06/13 05:33:54;;;;;;;;;;;26.50;75.30;;;;;;5054405;28;19935;-64
2023/06/13 05:36:20;;;;;;;;;;;26.50;74.70;;;;;;5037650;28;19928;-64
2023/06/13 05:38:46;;;;;;;;;;;26.50;74.10;;;;;;5054735;28;19952;-64
2023/06/13 05:41:11;;;;;;;;;;;26.70;72.80;;;;;;5060443;28;19951;-65
2023/06/13 05:43:37;;;;;;;;;;;26.90;73.20;;;;;;5071356;28;20345;-64
2023/06/13 05:46:03;;;;;;;;;;;27.30;74.60;;;;;;5072229;28;19925;-65
2023/06/13 05:48:29;;;;;;;;;;;27.80;74.30;;;;;;5070222;28;20032;-64
2023/06/13 05:50:54;;;;;;;;;;;28.20;73.30;;;;;;5068807;28;19928;-65
2023/06/13 05:53:20;;;;;;;;;;;28.40;73.20;;;;;;5071334;28;19925;-64
2023/06/13 05:55:46;;;;;;;;;;;28.70;73.70;;;;;;5052884;28;20015;-64
2023/06/13 05:58:11;;;;;;;;;;;28.80;73.40;;;;;;5071077;28;19986;-69
2023/06/13 06:00:37;;;;;;;;;;;28.90;72.70;;;;;;5066459;28;20031;-64
2023/06/13 06:03:03;;;;;;;;;;;29.00;72.40;;;;;;5064257;28;20368;-64
2023/06/13 06:05:29;;;;;;;;;;;28.90;71.00;;;;;;5040445;28;19950;-64
2023/06/13 06:07:54;;;;;;;;;;;29.20;72.40;;;;;;5062464;28;20015;-64
2023/06/13 06:10:20;;;;;;;;;;;29.20;71.60;;;;;;5058676;28;20007;-64
2023/06/13 06:12:46;;;;;;;;;;;29.50;71.90;;;;;;5061483;28;19924;-64
2023/06/13 06:15:12;;;;;;;;;;;29.90;70.80;;;;;;5071660;28;19933;-64
2023/06/13 06:17:37;;;;;;;;;;;29.90;69.60;;;;;;5070886;28;19979;-64
2023/06/13 06:20:06;;;;;;;;;;;29.80;69.40;;;;;;5062801;28;19951;-65
2023/06/13 06:22:31;;;;;;;;;;;29.80;68.90;;;;;;5061182;28;19943;-66
2023/06/13 06:24:57;;;;;;;;;;;29.70;68.20;;;;;;5071021;28;20282;-65
2023/06/13 06:27:22;;;;;;;;;;;29.90;67.70;;;;;;5051221;28;19924;-67
2023/06/13 06:29:48;;;;;;;;;;;30.00;66.40;;;;;;5059084;28;19951;-66
2023/06/13 06:32:13;;;;;;;;;;;30.10;66.70;;;;;;5062804;28;19997;-68
2023/06/13 06:34:39;;;;;;;;;;;30.00;64.80;;;;;;5069028;28;19928;-64
2023/06/13 06:37:05;;;;;;;;;;;29.80;66.10;;;;;;5046973;28;20101;-66
2023/06/13 06:39:31;;;;;;;;;;;30.00;64.40;;;;;;5064838;28;20254;-64
2023/06/13 06:41:57;;;;;;;;;;;30.10;64.40;;;;;;5071208;28;20035;-64
2023/06/13 06:44:23;;;;;;;;;;;30.20;64.60;;;;;;5050762;28;20095;-67
2023/06/13 06:46:48;;;;;;;;;;;30.40;65.10;;;;;;5068632;28;19924;-65
2023/06/13 06:49:16;;;;;;;;;;;30.60;62.60;;;;;;5071277;28;19950;-65
2023/06/13 06:51:42;;;;;;;;;;;30.50;63.70;;;;;;5069908;28;19928;-65
2023/06/13 06:54:07;;;;;;;;;;;30.70;63.50;;;;;;5071048;28;19936;-65
2023/06/13 06:56:33;;;;;;;;;;;31.10;63.70;;;;;;5069851;28;19999;-64
2023/06/13 06:58:59;;;;;;;;;;;31.50;63.80;;;;;;5069306;28;19958;-64
2023/06/13 07:01:24;;;;;;;;;;;31.70;62.20;;;;;;5070690;28;19929;-64
2023/06/13 07:03:50;;;;;;;;;;;31.60;62.70;;;;;;5070907;28;19928;-63
2023/06/13 07:06:15;;;;;;;;;;;31.50;62.00;;;;;;5064118;28;19925;-64
2023/06/13 07:08:41;;;;;;;;;;;31.40;61.50;;;;;;5050364;28;19929;-65
2023/06/13 07:11:07;;;;;;;;;;;31.60;62.20;;;;;;5067078;28;20020;-65
2023/06/13 07:13:32;;;;;;;;;;;31.50;61.40;;;;;;5048015;28;19931;-65
2023/06/13 07:15:59;;;;;;;;;;;31.50;61.80;;;;;;5070120;28;20031;-65
2023/06/13 07:18:25;;;;;;;;;;;31.80;62.70;;;;;;5062441;28;19991;-65
2023/06/13 07:20:51;;;;;;;;;;;32.30;62.40;;;;;;5070235;28;19931;-65
2023/06/13 07:23:17;;;;;;;;;;;32.50;62.30;;;;;;5048537;28;19936;-66
2023/06/13 07:25:42;;;;;;;;;;;32.60;62.20;;;;;;5050351;28;19998;-69
2023/06/13 07:28:08;;;;;;;;;;;32.80;61.90;;;;;;5046760;28;19932;-64
2023/06/13 07:30:34;;;;;;;;;;;32.70;61.60;;;;;;5048511;28;20055;-65
2023/06/13 07:33:00;;;;;;;;;;;32.80;61.80;;;;;;5049334;28;19925;-65
2023/06/13 07:35:25;;;;;;;;;;;32.90;61.90;;;;;;5049132;28;19929;-68
2023/06/13 07:37:52;;;;;;;;;;;33.00;61.90;;;;;;5043245;28;19933;-65
2023/06/13 07:40:18;;;;;;;;;;;33.00;61.80;;;;;;5042121;28;20004;-64
2023/06/13 07:42:44;;;;;;;;;;;33.10;62.30;;;;;;5049978;28;20598;-65
2023/06/13 07:45:09;;;;;;;;;;;33.20;62.00;;;;;;5048691;28;19978;-64
2023/06/13 07:47:35;;;;;;;;;;;33.30;62.30;;;;;;5048102;28;19936;-65
2023/06/13 07:50:02;;;;;;;;;;;33.10;61.90;;;;;;5048817;28;19925;-64
2023/06/13 07:52:27;;;;;;;;;;;33.40;62.50;;;;;;5039000;28;19932;-66
2023/06/13 07:54:53;;;;;;;;;;;33.30;62.00;;;;;;5029487;28;19929;-64
2023/06/13 07:57:19;;;;;;;;;;;33.10;62.20;;;;;;5035006;28;19929;-64
2023/06/13 07:59:44;;;;;;;;;;;33.20;62.50;;;;;;5025642;28;19952;-64
2023/06/13 08:02:10;;;;;;;;;;;33.10;62.70;;;;;;5045953;28;20405;-65
2023/06/13 08:04:36;;;;;;;;;;;33.20;63.20;;;;;;5049666;28;19931;-64
2023/06/13 08:07:01;;;;;;;;;;;33.40;63.50;;;;;;5037896;28;19928;-64
2023/06/13 08:09:27;;;;;;;;;;;33.40;62.70;;;;;;5032518;28;19928;-67
2023/06/13 08:11:53;;;;;;;;;;;33.50;62.80;;;;;;5048056;28;20466;-66
2023/06/13 08:14:18;;;;;;;;;;;33.80;62.80;;;;;;5038176;28;19936;-64
2023/06/13 08:16:44;;;;;;;;;;;33.80;63.40;;;;;;5047394;28;19925;-65
2023/06/13 08:19:10;;;;;;;;;;;33.90;63.30;;;;;;5051949;28;19931;-64
2023/06/13 08:21:35;;;;;;;;;;;34.20;63.10;;;;;;5050923;28;19925;-64
2023/06/13 08:24:01;;;;;;;;;;;34.20;62.30;;;;;;5051650;28;19933;-64
2023/06/13 08:26:27;;;;;;;;;;;34.40;62.30;;;;;;5053001;28;19924;-63
2023/06/13 08:28:53;;;;;;;;;;;34.30;62.50;;;;;;5071904;28;19925;-65
2023/06/13 08:31:23;;;;;;;;;;;34.40;62.20;;;;;;5070902;28;19924;-65
2023/06/13 08:33:52;;;;;;;;;;;34.40;61.90;;;;;;5070800;28;20593;-66
2023/06/13 08:36:17;;;;;;;;;;;34.50;61.90;;;;;;5070287;28;19946;-65
2023/06/13 08:38:43;;;;;;;;;;;34.30;62.20;;;;;;5044858;28;20022;-64
2023/06/13 08:41:10;;;;;;;;;;;34.70;62.40;;;;;;5051038;28;19929;-65
2023/06/13 08:43:36;;;;;;;;;;;34.70;61.90;;;;;;5068064;28;20443;-65
2023/06/13 08:46:02;;;;;;;;;;;34.50;61.30;;;;;;5038352;28;20398;-64
2023/06/13 08:48:32;;;;;;;;;;;34.40;60.80;;;;;;5041985;28;20016;-69
2023/06/13 08:51:03;;;;;;;;;;;33.90;59.50;;;;;;5044504;28;19975;-66
2023/06/13 08:53:29;;;;;;;;;;;33.90;60.00;;;;;;5071483;28;20011;-65
2023/06/13 08:55:56;;;;;;;;;;;33.70;60.60;;;;;;5072915;28;19925;-65
2023/06/13 08:58:24;;;;;;;;;;;34.00;60.40;;;;;;5059505;28;19951;-65
2023/06/13 09:00:50;;;;;;;;;;;34.00;59.50;;;;;;5070981;28;20293;-66
2023/06/13 09:03:17;;;;;;;;;;;34.20;60.30;;;;;;5043649;28;20031;-69
2023/06/13 09:05:43;;;;;;;;;;;34.40;59.80;;;;;;5061587;28;19929;-66
2023/06/13 09:08:09;;;;;;;;;;;34.30;59.00;;;;;;5072360;28;20008;-65
2023/06/13 09:10:35;;;;;;;;;;;34.10;59.40;;;;;;5070299;28;19925;-65
2023/06/13 09:13:02;;;;;;;;;;;34.00;60.40;;;;;;5063822;28;20305;-65
2023/06/13 09:15:28;;;;;;;;;;;34.00;60.40;;;;;;5064172;28;19937;-65
2023/06/13 09:17:53;;;;;;;;;;;33.90;61.90;;;;;;5059081;28;20429;-65
2023/06/13 09:20:19;;;;;;;;;;;33.80;62.30;;;;;;5068369;28;19929;-65
2023/06/13 09:22:46;;;;;;;;;;;34.00;62.30;;;;;;5045014;28;19959;-65
2023/06/13 09:25:16;;;;;;;;;;;34.10;61.00;;;;;;5072443;28;20090;-65
2023/06/13 09:27:42;;;;;;;;;;;33.90;61.70;;;;;;5043278;28;20441;-66
2023/06/13 09:30:08;;;;;;;;;;;33.70;61.20;;;;;;5070457;28;20023;-65
2023/06/13 09:32:35;;;;;;;;;;;33.50;61.30;;;;;;5069977;28;20268;-68
2023/06/13 09:35:04;;;;;;;;;;;33.40;60.50;;;;;;5081601;28;20062;-65
2023/06/13 09:37:30;;;;;;;;;;;33.10;61.30;;;;;;5034398;28;19932;-65
2023/06/13 09:39:55;;;;;;;;;;;33.00;61.40;;;;;;5067538;28;19977;-66
2023/06/13 09:42:21;;;;;;;;;;;33.10;61.50;;;;;;5026515;28;20341;-64
2023/06/13 09:44:48;;;;;;;;;;;32.80;61.00;;;;;;5070247;28;19964;-66
2023/06/13 09:47:23;;;;;;;;;;;32.90;60.70;;;;;;5072472;28;20784;-65
2023/06/13 09:49:53;;;;;;;;;;;33.00;60.00;;;;;;5060206;28;19971;-65
2023/06/13 09:52:21;;;;;;;;;;;32.40;61.60;;;;;;5058816;28;19936;-65
2023/06/13 09:54:47;;;;;;;;;;;32.50;60.80;;;;;;5059747;28;20313;-65
2023/06/13 09:57:13;;;;;;;;;;;32.30;60.90;;;;;;5052792;28;19928;-65
2023/06/13 09:59:38;;;;;;;;;;;32.20;62.10;;;;;;5068724;28;20259;-64
2023/06/13 10:02:04;;;;;;;;;;;32.10;61.90;;;;;;5065021;28;19931;-65
2023/06/13 10:04:30;;;;;;;;;;;31.90;61.50;;;;;;5068369;28;19925;-64
2023/06/13 10:06:56;;;;;;;;;;;31.60;62.10;;;;;;5069500;28;20377;-65
2023/06/13 10:09:21;;;;;;;;;;;31.30;63.50;;;;;;5055427;28;20433;-65
2023/06/13 10:11:49;;;;;;;;;;;31.40;62.80;;;;;;5030162;28;19935;-64
2023/06/13 10:14:21;;;;;;;;;;;31.10;61.20;;;;;;5069953;28;19972;-65
2023/06/13 10:16:51;;;;;;;;;;;30.70;61.90;;;;;;5058067;28;19928;-66
2023/06/13 10:19:21;;;;;;;;;;;30.40;62.50;;;;;;5070426;28;19924;-64
2023/06/13 10:21:47;;;;;;;;;;;30.40;62.80;;;;;;5061396;28;19925;-64
2023/06/13 10:24:16;;;;;;;;;;;30.40;61.90;;;;;;5052389;28;19924;-64
2023/06/13 10:26:43;;;;;;;;;;;30.30;63.60;;;;;;5039955;28;20015;-63
2023/06/13 10:29:29;;;;;;;;;;;30.10;62.80;;;;;;5053021;28;19928;-64
2023/06/13 10:31:56;;;;;;;;;;;29.80;62.10;;;;;;5010905;28;19924;-64
2023/06/13 10:34:40;;;;;;;;;;;29.70;64.30;;;;;;5066705;28;20062;-64
2023/06/13 10:37:09;;;;;;;;;;;29.80;65.30;;;;;;5070175;28;19924;-64
2023/06/13 10:39:44;;;;;;;;;;;29.70;65.20;;;;;;5066451;28;19932;-64
2023/06/13 10:42:16;;;;;;;;;;;29.50;64.80;;;;;;5068295;28;19928;-65
2023/06/13 10:44:47;;;;;;;;;;;29.50;66.00;;;;;;5068758;28;19928;-64
2023/06/13 10:47:20;;;;;;;;;;;29.50;66.90;;;;;;5060292;28;19929;-64
2023/06/13 10:49:51;;;;;;;;;;;29.40;67.30;;;;;;5052616;28;19924;-65
2023/06/13 10:52:18;;;;;;;;;;;29.20;68.40;;;;;;5065215;28;19925;-65
2023/06/13 10:54:48;;;;;;;;;;;29.00;68.20;;;;;;5064251;28;19925;-64
2023/06/13 10:57:13;;;;;;;;;;;28.80;69.30;;;;;;5055057;28;20502;-66
2023/06/13 10:59:40;;;;;;;;;;;28.80;68.40;;;;;;5071177;28;20374;-64
2023/06/13 11:02:14;;;;;;;;;;;28.80;69.20;;;;;;5052047;28;19925;-65
2023/06/13 11:04:40;;;;;;;;;;;28.70;68.80;;;;;;5058487;28;19924;-64
2023/06/13 11:07:24;;;;;;;;;;;28.50;68.70;;;;;;5066810;28;19931;-64
2023/06/13 11:10:05;;;;;;;;;;;28.30;68.00;;;;;;5070871;28;19924;-69
2023/06/13 11:12:31;;;;;;;;;;;28.20;68.60;;;;;;5070248;28;19929;-66
2023/06/13 11:14:58;;;;;;;;;;;28.10;69.40;;;;;;5065027;28;19924;-64
2023/06/13 11:17:24;;;;;;;;;;;27.90;67.30;;;;;;5068054;28;20366;-65
2023/06/13 11:19:52;;;;;;;;;;;27.90;65.10;;;;;;5068396;28;19935;-64
2023/06/13 11:22:21;;;;;;;;;;;27.90;66.10;;;;;;5022591;28;20305;-65
2023/06/13 11:24:47;;;;;;;;;;;27.90;68.50;;;;;;5070025;28;20290;-65
2023/06/13 11:27:15;;;;;;;;;;;28.00;68.30;;;;;;5069228;28;20377;-64
2023/06/13 11:29:42;;;;;;;;;;;27.90;68.60;;;;;;5052382;28;19950;-65
2023/06/13 11:32:08;;;;;;;;;;;27.80;69.40;;;;;;5052050;28;19933;-64
2023/06/13 11:34:38;;;;;;;;;;;27.80;69.40;;;;;;5070283;28;19928;-65
2023/06/13 11:37:06;;;;;;;;;;;27.80;68.70;;;;;;5070069;28;20362;-64
2023/06/13 11:39:41;;;;;;;;;;;27.60;69.90;;;;;;5043986;28;19928;-64
2023/06/13 11:42:08;;;;;;;;;;;27.60;69.80;;;;;;5062832;28;19924;-65
2023/06/13 11:44:36;;;;;;;;;;;27.60;70.00;;;;;;5071484;28;19928;-64
2023/06/13 11:47:02;;;;;;;;;;;27.50;69.70;;;;;;5057854;28;19932;-65
2023/06/13 11:49:28;;;;;;;;;;;27.40;69.30;;;;;;5069192;28;19924;-65
2023/06/13 11:51:53;;;;;;;;;;;27.30;69.80;;;;;;5068326;28;19925;-65
2023/06/13 11:54:27;;;;;;;;;;;27.40;70.50;;;;;;5071534;28;19927;-65
2023/06/13 11:56:53;;;;;;;;;;;27.30;70.80;;;;;;5074587;28;19935;-64
2023/06/13 11:59:20;;;;;;;;;;;27.30;71.60;;;;;;5047680;28;19924;-65
2023/06/13 12:01:52;;;;;;;;;;;27.40;70.90;;;;;;5056718;28;20444;-65
2023/06/13 12:04:25;;;;;;;;;;;27.40;70.70;;;;;;5067399;28;19944;-65
2023/06/13 12:06:52;;;;;;;;;;;27.30;71.30;;;;;;5057471;28;20285;-68
2023/06/13 12:09:18;;;;;;;;;;;27.40;71.20;;;;;;5053295;28;19924;-65
2023/06/13 12:11:44;;;;;;;;;;;27.40;72.00;;;;;;5054037;28;19929;-65
2023/06/13 12:14:09;;;;;;;;;;;27.40;71.00;;;;;;5052093;28;19974;-64
2023/06/13 12:16:36;;;;;;;;;;;27.40;70.50;;;;;;5053777;28;19924;-64
2023/06/13 12:19:02;;;;;;;;;;;27.30;70.90;;;;;;5072554;28;19974;-64
2023/06/13 12:21:29;;;;;;;;;;;27.30;70.30;;;;;;5073700;28;19936;-64
2023/06/13 12:23:59;;;;;;;;;;;27.30;71.00;;;;;;5037230;28;20007;-64
2023/06/13 12:26:25;;;;;;;;;;;27.30;70.60;;;;;;5071088;28;19972;-68
2023/06/13 12:28:52;;;;;;;;;;;27.20;70.40;;;;;;5070570;28;20389;-65
2023/06/13 12:31:28;;;;;;;;;;;27.10;71.20;;;;;;5072386;28;19928;-65
2023/06/13 12:34:03;;;;;;;;;;;27.00;70.80;;;;;;5065939;28;19924;-64
2023/06/13 12:36:32;;;;;;;;;;;27.00;71.40;;;;;;5060868;28;19935;-64
2023/06/13 12:38:59;;;;;;;;;;;27.00;71.20;;;;;;5073939;28;19928;-65
2023/06/13 12:41:26;;;;;;;;;;;27.00;70.80;;;;;;5059695;28;19935;-65
2023/06/13 12:43:51;;;;;;;;;;;27.00;70.90;;;;;;5068297;28;19929;-67
2023/06/13 12:46:17;;;;;;;;;;;27.00;70.90;;;;;;5057854;28;19928;-65
2023/06/13 12:48:43;;;;;;;;;;;26.90;70.70;;;;;;5050023;28;20438;-65
2023/06/13 12:51:25;;;;;;;;;;;26.90;71.20;;;;;;5073406;28;19928;-64
2023/06/13 12:53:50;;;;;;;;;;;26.90;71.40;;;;;;5072490;28;20303;-64
2023/06/13 12:56:16;;;;;;;;;;;26.90;71.40;;;;;;5052112;28;19931;-65
2023/06/13 12:58:42;;;;;;;;;;;27.00;71.00;;;;;;5068932;28;19932;-65
2023/06/13 13:01:07;;;;;;;;;;;27.00;71.20;;;;;;5071728;28;20339;-65
2023/06/13 13:03:34;;;;;;;;;;;27.10;71.30;;;;;;5073641;28;20007;-64
2023/06/13 13:06:00;;;;;;;;;;;27.10;71.20;;;;;;5067385;28;19939;-65
2023/06/13 13:08:26;;;;;;;;;;;27.10;70.50;;;;;;5069784;28;19928;-68
2023/06/13 13:10:52;;;;;;;;;;;27.00;71.20;;;;;;5073633;28;19928;-65
2023/06/13 13:13:18;;;;;;;;;;;27.00;71.30;;;;;;5055063;28;20301;-65
2023/06/13 13:15:45;;;;;;;;;;;26.90;71.40;;;;;;5072662;28;19924;-65
2023/06/13 13:18:11;;;;;;;;;;;26.70;71.90;;;;;;5072240;28;19967;-65
2023/06/13 13:20:36;;;;;;;;;;;26.60;71.20;;;;;;5073079;28;20358;-65
2023/06/13 13:23:02;;;;;;;;;;;26.60;71.40;;;;;;5072622;28;19924;-65
2023/06/13 13:25:27;;;;;;;;;;;26.50;71.60;;;;;;5071773;28;19928;-65
2023/06/13 13:27:53;;;;;;;;;;;26.50;72.20;;;;;;5053614;28;19939;-65
2023/06/13 13:30:19;;;;;;;;;;;26.60;72.20;;;;;;5054472;28;19925;-65
2023/06/13 13:32:46;;;;;;;;;;;26.60;71.50;;;;;;5063863;28;20027;-66
2023/06/13 13:35:12;;;;;;;;;;;26.50;72.10;;;;;;5072777;28;19932;-65
2023/06/13 13:37:38;;;;;;;;;;;26.50;72.30;;;;;;5071249;28;19920;-65
2023/06/13 13:40:04;;;;;;;;;;;26.60;72.50;;;;;;5072197;28;19932;-65
2023/06/13 13:42:36;;;;;;;;;;;26.60;72.60;;;;;;5072470;28;19928;-65
2023/06/13 13:45:02;;;;;;;;;;;26.70;72.20;;;;;;5072659;28;20348;-65
2023/06/13 13:47:28;;;;;;;;;;;26.60;72.50;;;;;;5038015;28;19970;-66
2023/06/13 13:49:57;;;;;;;;;;;26.60;72.20;;;;;;5068189;28;19924;-65
2023/06/13 13:52:23;;;;;;;;;;;26.50;71.70;;;;;;5072224;28;19925;-65
2023/06/13 13:54:49;;;;;;;;;;;26.50;72.00;;;;;;5072917;28;19928;-65
2023/06/13 13:57:14;;;;;;;;;;;26.50;72.10;;;;;;5057310;28;19932;-66
2023/06/13 13:59:40;;;;;;;;;;;26.50;71.80;;;;;;5054979;28;20396;-65
2023/06/13 14:02:05;;;;;;;;;;;26.50;71.60;;;;;;5050477;28;19924;-65
2023/06/13 14:04:32;;;;;;;;;;;26.50;71.40;;;;;;5063014;28;19939;-67
2023/06/13 14:06:58;;;;;;;;;;;26.40;71.80;;;;;;5071056;28;19924;-65
2023/06/13 14:09:23;;;;;;;;;;;26.40;71.90;;;;;;5065872;28;19924;-65
2023/06/13 14:11:49;;;;;;;;;;;26.30;72.10;;;;;;5072279;28;20400;-66
2023/06/13 14:14:15;;;;;;;;;;;26.30;72.50;;;;;;5037598;28;19924;-65